.
WxDataArchive / Data Records for 2011-04-14
2011-04-13 April 2011 2011-04-15

Data Records for Thursday, 14 April 2011

Time	Temp	Chill	HIndex	Humid	Dewpt	 Wind 	HiWind	WindDir	Rain 	Barom 
-----	----	-----	------	-----	-----	------	------	-------	-----	----- 
00:00	47.1	47.1	47.1	54	31.3	0	0	---	0.00	30.061 
00:05	47.3	47.3	47.3	54	31.5	0	0	---	0.00	30.061 
00:10	47.3	47.3	47.3	53	31.0	0	0	---	0.00	30.061 
00:15	47.3	47.3	47.3	53	31.0	0	0	---	0.00	30.058 
00:20	47.3	47.3	47.3	54	31.5	0	0	---	0.00	30.058 
00:25	47.3	47.3	47.3	54	31.5	0	0	---	0.00	30.058 
00:30	47.1	47.1	47.1	53	30.9	0	0	---	0.00	30.058 
00:35	47.0	47.0	47.0	53	30.8	0	0	---	0.00	30.058 
00:40	47.0	47.0	47.0	54	31.2	0	0	---	0.00	30.058 
00:45	47.0	47.0	47.0	53	30.8	0	0	---	0.00	30.053 
00:50	46.7	46.7	46.7	54	30.9	0	0	---	0.00	30.053 
00:55	46.5	46.5	46.5	54	30.8	0	0	---	0.00	30.053 
01:00	46.4	46.4	46.4	54	30.7	0	0	---	0.00	30.055 
01:05	46.2	46.2	46.2	54	30.5	0	0	---	0.00	30.055 
01:10	46.0	46.0	46.0	54	30.3	0	0	---	0.00	30.055 
01:15	45.7	45.7	45.7	54	30.0	0	0	---	0.00	30.049 
01:20	45.4	45.4	45.4	55	30.2	0	0	---	0.00	30.049 
01:25	45.1	45.1	45.1	57	30.8	0	0	---	0.00	30.049 
01:30	44.9	44.9	44.9	57	30.6	0	0	---	0.00	30.052 
01:35	44.8	44.8	44.8	57	30.5	0	0	---	0.00	30.052 
01:40	44.6	44.6	44.6	58	30.7	0	0	---	0.00	30.052 
01:45	44.5	44.5	44.5	58	30.7	0	0	---	0.00	30.052 
01:50	44.2	44.2	44.2	58	30.4	0	0	---	0.00	30.052 
01:55	43.9	43.9	43.9	58	30.1	0	0	---	0.00	30.052 
02:00	43.8	43.8	43.8	59	30.4	0	0	---	0.00	30.059 
02:05	43.6	43.6	43.6	60	30.6	0	0	---	0.00	30.059 
02:10	43.3	43.3	43.3	61	30.8	0	0	---	0.00	30.059 
02:15	43.2	43.2	43.2	61	30.7	0	0	---	0.00	30.060 
02:20	43.1	43.1	43.1	61	30.6	0	0	---	0.00	30.060 
02:25	42.9	42.9	42.9	62	30.8	0	0	---	0.00	30.060 
02:30	42.8	42.8	42.8	63	31.1	0	0	---	0.00	30.062 
02:35	42.6	42.6	42.6	64	31.3	0	0	---	0.00	30.062 
02:40	42.5	42.5	42.5	65	31.6	0	0	---	0.00	30.062 
02:45	42.3	42.3	42.3	65	31.4	0	0	---	0.00	30.065 
02:50	42.2	42.2	42.2	65	31.3	0	0	---	0.00	30.065 
02:55	42.1	42.1	42.1	66	31.6	0	0	---	0.00	30.065 
03:00	41.9	41.9	41.9	67	31.8	0	0	---	0.00	30.064 
03:05	41.8	41.8	41.8	67	31.7	0	0	---	0.00	30.064 
03:10	41.5	41.5	41.5	68	31.7	0	0	---	0.00	30.064 
03:15	41.3	41.3	41.3	68	31.5	0	0	---	0.00	30.062 
03:20	41.2	41.2	41.2	69	31.8	0	0	---	0.00	30.062 
03:25	41.1	41.1	41.1	69	31.7	0	0	---	0.00	30.062 
03:30	40.8	40.8	40.8	69	31.4	0	0	---	0.00	30.061 
03:35	40.8	40.8	40.8	70	31.8	0	0	---	0.00	30.061 
03:40	40.6	40.6	40.6	70	31.6	0	0	---	0.00	30.061 
03:45	40.5	40.5	40.5	70	31.5	0	0	---	0.00	30.056 
03:50	40.3	40.3	40.3	70	31.3	0	0	---	0.00	30.056 
03:55	40.3	40.3	40.3	71	31.7	0	0	---	0.00	30.056 
04:00	40.2	40.2	40.2	72	31.9	0	0	---	0.00	30.059 
04:05	40.1	40.1	40.1	72	31.8	0	0	---	0.00	30.059 
04:10	40.1	40.1	40.1	72	31.8	0	0	---	0.00	30.059 
04:15	39.9	39.9	39.9	73	32.0	0	0	---	0.00	30.065 
04:20	39.9	39.9	39.9	74	32.3	0	0	---	0.00	30.065 
04:25	39.8	39.8	39.8	74	32.2	0	0	---	0.00	30.065 
04:30	39.8	39.8	39.8	74	32.2	0	0	---	0.00	30.066 
04:35	39.6	39.6	39.6	75	32.3	0	0	---	0.00	30.066 
04:40	39.6	39.6	39.6	75	32.3	0	0	---	0.00	30.066 
04:45	39.6	39.6	39.6	75	32.3	0	0	---	0.00	30.066 
04:50	39.5	39.5	39.5	75	32.2	0	0	---	0.00	30.066 
04:55	39.5	39.5	39.5	75	32.2	0	0	---	0.00	30.066 
05:00	39.5	39.5	39.5	75	32.2	0	0	---	0.00	30.067 
05:05	39.3	39.3	39.3	75	32.0	0	0	---	0.00	30.067 
05:10	39.3	39.3	39.3	75	32.0	0	0	---	0.00	30.067 
05:15	39.2	39.2	39.2	74	31.6	0	0	---	0.00	30.067 
05:20	39.1	39.1	39.1	74	31.5	0	0	---	0.00	30.067 
05:25	39.2	39.2	39.2	75	32.0	0	0	---	0.00	30.067 
05:30	39.2	39.2	39.2	74	31.6	0	0	---	0.00	30.069 
05:35	39.3	39.3	39.3	73	31.4	0	0	---	0.00	30.069 
05:40	39.2	39.2	39.2	73	31.3	0	0	---	0.00	30.069 
05:45	39.1	39.1	39.1	73	31.2	0	0	---	0.00	30.070 
05:50	39.1	39.1	39.1	72	30.8	0	0	---	0.00	30.070 
05:55	39.1	39.1	39.1	72	30.8	0	0	---	0.00	30.070 
06:00	39.1	39.1	39.1	72	30.8	0	0	---	0.00	30.082 
06:05	39.2	39.2	39.2	71	30.6	0	0	---	0.00	30.082 
06:10	39.3	39.3	39.3	70	30.3	0	0	---	0.00	30.082 
06:15	39.3	39.3	39.3	70	30.3	0	0	---	0.00	30.084 
06:20	39.3	39.3	39.3	69	30.0	0	0	---	0.00	30.084 
06:25	39.5	39.5	39.5	69	30.2	0	0	---	0.00	30.084 
06:30	39.6	39.6	39.6	69	30.3	0	0	---	0.00	30.083 
06:35	39.8	39.8	39.8	69	30.5	0	0	---	0.00	30.083 
06:40	39.8	39.8	39.8	69	30.5	0	0	---	0.00	30.083 
06:45	39.6	39.6	39.6	69	30.3	0	0	---	0.00	30.084 
06:50	39.6	39.6	39.6	69	30.3	0	0	---	0.00	30.084 
06:55	39.5	39.5	39.5	69	30.2	0	0	---	0.00	30.084 
07:00	39.5	39.5	39.5	70	30.5	0	0	---	0.00	30.096 
07:05	39.5	39.5	39.5	70	30.5	0	0	---	0.00	30.096 
07:10	39.6	39.6	39.6	70	30.6	0	0	---	0.00	30.096 
07:15	39.8	39.8	39.8	70	30.8	0	0	---	0.00	30.109 
07:20	39.8	39.8	39.8	70	30.8	0	0	---	0.00	30.109 
07:25	39.8	39.8	39.8	70	30.8	0	0	---	0.00	30.109 
07:30	39.8	39.8	39.8	71	31.2	0	0	---	0.00	30.110 
07:35	39.8	39.8	39.8	71	31.2	0	0	---	0.00	30.110 
07:40	40.1	40.1	40.1	71	31.5	0	0	---	0.00	30.110 
07:45	40.3	40.3	40.3	71	31.7	0	0	---	0.00	30.112 
07:50	40.8	40.8	40.8	70	31.8	0	0	---	0.00	30.112 
07:55	41.5	41.5	41.5	69	32.1	0	1	292	0.00	30.112 
08:00	42.5	42.5	42.5	67	32.3	0	2	292	0.00	30.115 
08:05	43.6	43.6	43.6	64	32.2	0	3	112	0.00	30.115 
08:10	45.2	45.2	45.2	62	33.0	0	4	112	0.00	30.115 
08:15	46.4	46.4	46.4	60	33.3	0	4	112	0.00	30.118 
08:20	47.4	47.4	47.4	58	33.4	1	5	112	0.00	30.118 
08:25	48.2	48.2	48.2	55	32.8	1	6	90	0.00	30.118 
08:30	48.9	48.9	48.9	55	33.5	1	5	90	0.00	30.122 
08:35	49.4	49.4	49.4	55	33.9	1	6	68	0.00	30.122 
08:40	49.8	49.8	49.8	55	34.3	1	3	68	0.00	30.122 
08:45	50.2	50.2	50.2	54	34.2	1	3	0	0.00	30.125 
08:50	50.4	50.4	50.4	55	34.8	2	9	90	0.00	30.125 
08:55	50.5	50.5	50.5	54	34.5	2	6	112	0.00	30.125 
09:00	50.5	50.5	50.5	55	34.9	2	7	112	0.00	30.128 
09:05	50.7	50.7	50.7	54	34.7	2	6	112	0.00	30.128 
09:10	50.8	50.8	50.8	54	34.8	3	10	90	0.00	30.128 
09:15	51.1	51.1	51.1	54	35.0	3	9	112	0.00	30.136 
09:20	51.4	51.4	51.4	53	34.8	1	6	90	0.00	30.136 
09:25	51.4	51.4	51.4	52	34.4	4	13	90	0.00	30.136 
09:30	51.3	51.3	51.3	52	34.3	5	12	112	0.00	30.134 
09:35	51.4	51.4	51.4	52	34.4	3	15	90	0.00	30.134 
09:40	51.9	51.9	51.9	53	35.3	3	11	112	0.00	30.134 
09:45	52.2	52.2	52.2	53	35.6	2	7	90	0.00	30.142 
09:50	52.9	52.9	52.9	53	36.2	2	11	112	0.00	30.142 
09:55	53.2	53.2	53.2	51	35.5	4	9	90	0.00	30.142 
10:00	53.3	53.3	53.3	50	35.1	4	9	90	0.00	30.144 
10:05	53.2	53.2	53.2	49	34.5	6	11	112	0.00	30.144 
10:10	53.2	53.2	53.2	51	35.5	5	11	112	0.00	30.144 
10:15	53.5	53.5	53.5	52	36.3	3	7	90	0.00	30.146 
10:20	53.8	53.8	53.8	49	35.1	3	9	90	0.00	30.146 
10:25	53.5	53.5	53.5	49	34.8	4	13	90	0.00	30.146 
10:30	53.2	53.2	53.2	50	35.0	3	8	90	0.00	30.148 
10:35	53.9	53.9	53.9	50	35.7	3	8	112	0.00	30.148 
10:40	54.7	54.7	54.7	48	35.4	3	7	90	0.00	30.148 
10:45	55.3	55.3	55.3	48	35.9	2	6	90	0.00	30.153 
10:50	55.9	55.9	55.9	48	36.5	3	8	90	0.00	30.153 
10:55	55.9	55.9	55.9	47	36.0	4	10	90	0.00	30.153 
11:00	55.9	55.9	55.9	50	37.5	3	11	112	0.00	30.156 
11:05	56.7	56.7	56.7	50	38.3	1	6	90	0.00	30.156 
11:10	57.6	57.6	57.6	51	39.6	2	4	90	0.00	30.156 
11:15	57.8	57.8	57.8	46	37.2	3	11	112	0.00	30.157 
11:20	57.8	57.8	57.8	48	38.2	2	9	90	0.00	30.157 
11:25	57.6	57.6	57.6	47	37.5	3	7	112	0.00	30.157 
11:30	57.6	57.6	57.6	46	37.0	2	10	90	0.00	30.156 
11:35	58.3	58.3	58.3	48	38.7	2	6	90	0.00	30.156 
11:40	58.3	58.3	58.3	45	37.1	4	10	112	0.00	30.156 
11:45	58.6	58.6	58.6	45	37.3	2	10	90	0.00	30.149 
11:50	58.9	58.9	58.9	44	37.0	2	9	112	0.00	30.149 
11:55	58.9	58.9	58.9	44	37.0	3	6	90	0.00	30.149 
12:00	58.9	58.9	58.9	43	36.4	4	7	112	0.00	30.144 
12:05	58.9	58.9	58.9	43	36.4	4	10	90	0.00	30.144 
12:10	59.0	59.0	59.0	49	39.9	3	7	90	0.00	30.144 
12:15	59.3	59.3	59.3	43	36.8	4	10	112	0.00	30.145 
12:20	59.8	59.8	59.8	44	37.8	2	5	90	0.00	30.145 
12:25	60.2	60.2	60.2	44	38.2	3	9	90	0.00	30.145 
12:30	60.5	60.5	60.5	41	36.7	2	10	90	0.00	30.143 
12:35	60.7	60.7	60.7	42	37.5	3	7	90	0.00	30.143 
12:40	60.7	60.7	60.7	41	36.9	4	9	90	0.00	30.143 
12:45	61.0	61.0	61.0	41	37.1	3	8	90	0.00	30.142 
12:50	61.0	61.0	61.0	43	38.3	3	9	90	0.00	30.142 
12:55	61.0	61.0	61.0	40	36.5	4	12	90	0.00	30.142 
13:00	61.3	61.3	61.3	39	36.1	2	6	90	0.00	30.142 
13:05	61.8	61.8	61.8	40	37.2	2	7	112	0.00	30.142 
13:10	62.1	62.1	62.1	39	36.8	3	7	112	0.00	30.142 
13:15	62.1	62.1	62.1	39	36.8	4	10	112	0.00	30.143 
13:20	62.4	62.4	62.4	42	39.0	1	7	22	0.00	30.143 
13:25	63.1	63.1	63.1	39	37.7	3	7	90	0.00	30.143 
13:30	63.4	63.4	63.4	42	39.9	1	5	112	0.00	30.141 
13:35	63.4	63.4	63.4	39	38.0	3	13	135	0.00	30.141 
13:40	63.4	63.4	63.4	39	38.0	2	6	112	0.00	30.141 
13:45	63.1	63.1	63.1	39	37.7	6	11	112	0.00	30.139 
13:50	63.1	63.1	63.1	39	37.7	3	8	112	0.00	30.139 
13:55	63.4	63.4	63.4	39	38.0	2	5	112	0.00	30.139 
14:00	63.5	63.5	63.5	37	36.8	3	9	90	0.00	30.135 
14:05	63.2	63.2	63.2	39	37.8	5	11	112	0.00	30.135 
14:10	63.1	63.1	63.1	37	36.4	4	11	90	0.00	30.135 
14:15	63.4	63.4	63.4	39	38.0	3	9	112	0.00	30.139 
14:20	63.5	63.5	63.5	37	36.8	3	8	90	0.00	30.139 
14:25	63.4	63.4	63.4	37	36.7	5	12	90	0.00	30.139 
14:30	63.4	63.4	63.4	37	36.7	3	10	90	0.00	30.136 
14:35	63.7	63.7	63.7	37	36.9	3	10	90	0.00	30.136 
14:40	64.0	64.0	64.0	43	41.1	3	7	90	0.00	30.136 
14:45	64.3	64.3	64.3	38	38.1	3	10	90	0.00	30.129 
14:50	64.5	64.5	64.5	37	37.6	4	12	112	0.00	30.129 
14:55	64.2	64.2	64.2	35	36.0	5	11	112	0.00	30.129 
15:00	64.2	64.2	64.2	39	38.7	3	9	112	0.00	30.126 
15:05	64.5	64.5	64.5	38	38.3	3	7	112	0.00	30.126 
15:10	64.7	64.7	64.7	39	39.2	3	9	90	0.00	30.126 
15:15	64.7	64.7	64.7	36	37.1	3	10	90	0.00	30.128 
15:20	64.7	64.7	64.7	37	37.8	4	10	90	0.00	30.128 
15:25	65.0	65.0	65.0	37	38.1	4	10	112	0.00	30.128 
15:30	64.8	64.8	64.8	36	37.2	4	10	112	0.00	30.126 
15:35	64.5	64.5	64.5	37	37.6	4	9	112	0.00	30.126 
15:40	64.7	64.7	64.7	38	38.5	4	8	112	0.00	30.126 
15:45	65.0	65.0	65.0	39	39.4	3	7	112	0.00	30.121 
15:50	65.0	65.0	65.0	36	37.4	4	9	90	0.00	30.121 
15:55	65.0	65.0	65.0	39	39.4	4	10	112	0.00	30.121 
16:00	65.0	65.0	65.0	40	40.1	4	10	112	0.00	30.124 
16:05	64.8	64.8	64.8	39	39.3	4	10	112	0.00	30.124 
16:10	64.7	64.7	64.7	40	39.8	3	12	90	0.00	30.124 
16:15	64.5	64.5	64.5	40	39.6	5	12	112	0.00	30.122 
16:20	64.2	64.2	64.2	41	40.0	3	10	112	0.00	30.122 
16:25	64.0	64.0	64.0	39	38.5	4	10	112	0.00	30.122 
16:30	63.7	63.7	63.7	39	38.3	5	14	112	0.00	30.122 
16:35	63.5	63.5	63.5	39	38.1	3	11	112	0.00	30.122 
16:40	63.4	63.4	63.4	41	39.3	4	15	112	0.00	30.122 
16:45	63.2	63.2	63.2	40	38.5	5	12	90	0.00	30.126 
16:50	63.2	63.2	63.2	42	39.7	3	7	112	0.00	30.126 
16:55	63.1	63.1	63.1	40	38.4	4	11	112	0.00	30.126 
17:00	62.9	62.9	62.9	40	38.2	5	11	90	0.00	30.121 
17:05	62.9	62.9	62.9	41	38.8	3	9	112	0.00	30.121 
17:10	62.7	62.7	62.7	41	38.7	4	14	112	0.00	30.121 
17:15	62.6	62.6	62.6	43	39.8	3	7	45	0.00	30.117 
17:20	62.3	62.3	62.3	42	38.9	4	11	112	0.00	30.117 
17:25	62.0	62.0	62.0	43	39.2	4	12	45	0.00	30.117 
17:30	61.6	61.6	61.6	42	38.3	4	12	112	0.00	30.118 
17:35	61.5	61.5	61.5	44	39.4	4	11	112	0.00	30.118 
17:40	61.2	61.2	61.2	43	38.5	5	10	112	0.00	30.118 
17:45	61.0	61.0	61.0	44	38.9	5	14	112	0.00	30.121 
17:50	60.7	60.7	60.7	43	38.1	3	9	22	0.00	30.121 
17:55	60.4	60.4	60.4	44	38.4	3	9	112	0.00	30.121 
18:00	60.1	60.1	60.1	45	38.7	3	13	90	0.00	30.130 
18:05	59.9	59.9	59.9	43	37.3	3	13	68	0.00	30.130 
18:10	59.5	59.5	59.5	44	37.6	3	10	22	0.00	30.130 
18:15	59.2	59.2	59.2	44	37.3	4	12	90	0.00	30.134 
18:20	58.9	58.9	58.9	45	37.6	5	16	22	0.00	30.134 
18:25	58.7	58.7	58.7	46	38.0	3	12	112	0.00	30.134 
18:30	58.4	58.4	58.4	44	36.6	5	13	90	0.00	30.135 
18:35	58.4	58.4	58.4	45	37.1	3	11	112	0.00	30.135 
18:40	58.3	58.3	58.3	45	37.1	4	9	112	0.00	30.135 
18:45	58.1	58.1	58.1	45	36.9	3	8	112	0.00	30.140 
18:50	58.0	58.0	58.0	44	36.2	3	12	112	0.00	30.140 
18:55	57.8	57.8	57.8	45	36.6	3	10	45	0.00	30.140 
19:00	57.5	57.5	57.5	46	36.9	3	7	338	0.00	30.137 
19:05	57.3	57.3	57.3	46	36.7	3	11	112	0.00	30.137 
19:10	57.2	57.2	57.2	47	37.2	3	10	68	0.00	30.137 
19:15	57.0	57.0	57.0	47	37.0	3	10	112	0.00	30.137 
19:20	56.9	56.9	56.9	47	36.9	4	10	112	0.00	30.137 
19:25	56.7	56.7	56.7	47	36.7	4	10	112	0.00	30.137 
19:30	56.7	56.7	56.7	47	36.7	5	10	112	0.00	30.140 
19:35	56.6	56.6	56.6	48	37.1	3	12	112	0.00	30.140 
19:40	56.5	56.5	56.5	48	37.0	3	9	90	0.00	30.140 
19:45	56.3	56.3	56.3	48	36.9	4	9	112	0.00	30.145 
19:50	56.0	56.0	56.0	49	37.1	5	11	90	0.00	30.145 
19:55	55.9	55.9	55.9	50	37.5	5	11	90	0.00	30.145 
20:00	55.6	55.6	55.6	51	37.8	3	9	90	0.00	30.147 
20:05	55.3	55.3	55.3	51	37.5	3	9	112	0.00	30.147 
20:10	55.0	55.0	55.0	52	37.7	4	10	112	0.00	30.147 
20:15	54.7	54.7	54.7	52	37.4	3	9	112	0.00	30.143 
20:20	54.4	54.4	54.4	53	37.6	2	7	90	0.00	30.143 
20:25	54.1	54.1	54.1	54	37.8	3	10	90	0.00	30.143 
20:30	53.8	53.8	53.8	56	38.5	3	7	90	0.00	30.145 
20:35	53.6	53.6	53.6	56	38.3	3	9	112	0.00	30.145 
20:40	53.5	53.5	53.5	57	38.6	4	11	112	0.00	30.145 
20:45	53.2	53.2	53.2	58	38.8	3	10	90	0.00	30.144 
20:50	52.9	52.9	52.9	58	38.5	3	8	112	0.00	30.144 
20:55	52.8	52.8	52.8	58	38.4	4	11	112	0.00	30.144 
21:00	52.5	52.5	52.5	59	38.6	3	9	90	0.00	30.158 
21:05	52.3	52.3	52.3	59	38.4	6	15	90	0.00	30.158 
21:10	52.2	52.2	52.2	59	38.3	6	14	90	0.00	30.158 
21:15	52.0	52.0	52.0	59	38.1	4	12	112	0.00	30.163 
21:20	51.9	51.9	51.9	60	38.5	5	12	112	0.00	30.163 
21:25	51.6	51.6	51.6	60	38.2	3	11	90	0.00	30.163 
21:30	51.3	51.3	51.3	59	37.5	5	13	112	0.00	30.172 
21:35	51.1	51.1	51.1	58	36.8	5	15	112	0.00	30.172 
21:40	51.0	51.0	51.0	59	37.2	5	11	90	0.00	30.172 
21:45	50.7	50.7	50.7	59	36.9	4	9	90	0.00	30.176 
21:50	50.4	50.4	50.4	59	36.6	4	10	112	0.00	30.176 
21:55	50.1	50.1	50.1	59	36.3	5	11	112	0.00	30.176 
22:00	49.9	48.1	49.9	59	36.1	5	12	112	0.00	30.178 
22:05	49.6	48.4	49.6	59	35.9	4	11	90	0.00	30.178 
22:10	49.5	48.3	49.5	59	35.8	4	13	90	0.00	30.178 
22:15	49.4	49.4	49.4	59	35.7	3	9	90	0.00	30.187 
22:20	49.1	47.2	49.1	58	35.0	5	12	90	0.00	30.187 
22:25	48.9	47.6	48.9	57	34.3	4	11	112	0.00	30.187 
22:30	48.9	46.4	48.9	55	33.5	6	14	112	0.00	30.184 
22:35	48.8	46.8	48.8	54	32.9	5	14	112	0.00	30.184 
22:40	48.6	46.6	48.6	54	32.7	5	10	90	0.00	30.184 
22:45	48.5	47.1	48.5	54	32.6	4	7	112	0.00	30.188 
22:50	48.2	48.2	48.2	53	31.9	3	7	90	0.00	30.188 
22:55	48.0	45.9	48.0	53	31.7	5	12	112	0.00	30.188 
23:00	47.9	46.4	47.9	54	32.1	4	11	90	0.00	30.191 
23:05	47.6	46.1	47.6	54	31.8	4	15	90	0.00	30.191 
23:10	47.4	47.4	47.4	55	32.1	3	10	90	0.00	30.191 
23:15	47.3	45.8	47.3	55	32.0	4	14	90	0.00	30.186 
23:20	47.3	45.0	47.3	55	32.0	5	13	90	0.00	30.186 
23:25	47.1	44.2	47.1	56	32.2	6	14	112	0.00	30.186 
23:30	47.0	44.1	47.0	56	32.1	6	13	112	0.00	30.186 
23:35	46.8	43.9	46.8	57	32.4	6	12	112	0.00	30.186 
23:40	46.5	44.8	46.5	58	32.5	4	12	112	0.00	30.186 
23:45	46.4	44.7	46.4	59	32.9	4	12	90	0.00	30.194 
23:50	46.2	43.1	46.2	59	32.7	6	13	90	0.00	30.194 
23:55	46.1	44.4	46.1	60	33.0	4	12	90	0.00	30.194 

CoCoRaHS
IN-AL-39
A2 Web Hosting
Creative Commons License
GoDaddy
search engine by freefind advanced

loaded 2018-11-20 14:30:49 • last modified 2010-11-18 10:43:29
Privacy PolicyDisclaimer
• wx.awcolley.com is powered by PmWiki v.2002016 •
• all content (unless otherwise noted) © 2018 A W Colley